Airfield :
LOGIN :

Register | Disclaimer

   EN    FR    IT 

 










Legend :    VFR   Marginal VFR   IFR   Intensive IFR   Very Intensive IFR
Visi :
Ceiling :
>= 8 km
>= 3000ft
5 to 8 km
1000 to 3000 ft
1500m to 5 km
500 to 1000 ft
800 to 1500m
200 to 500 ft
< 800m
< 200 ft
Symbols :   Thunderstorms  Fog  Heavy snow  Heavy precipitations  Wind > 20 kt
SIGMETs :     Misc.  Thunderstorms  Icing  Turbulence  Mountain Waves  Volcanic Ashes






- Airport Elevation : 1367 ft
- IATA code : FDH


EDNY - Friedrichshafen

CURRENT METAR :
  • 062250Z AUTO 33003KT 9999 FEW066/// 16/12 Q1024

EXPIRED METARs :
  • 062220Z AUTO 35002KT 9999 SCT062/// 16/12 Q1024
  • 062150Z AUTO VRB01KT 9999 FEW058/// BKN160/// 17/11 Q1024
  • 062120Z AUTO 01003KT 9999 BKN058/// BKN082/// BKN160/// 18/11 Q1024
  • 062050Z AUTO 02005KT 9999 FEW059/// BKN190/// 18/12 Q1023
  • 062020Z 01007KT 9999 FEW058 19/12 Q1023

TAF TAF EDNY
Valid from the 06 at 18:00 until the 07 at 18:00 UTC


061700Z 0618/0718 04004KT CAVOK
BECMG 0707/0709 25006KT
PROB30
TEMPO 0713/0718 SHRA SCT040CB



MET'MAP, your aeronautical weather chart ! - Copyright ORBIFLY December 2007 - Disclaimer

ORBIFLY MET'MAP TEAM :

Programming & Development : Alexandra Zaïnal
Original concept : Baudouin d'Aumeries
Technical & hardware support : Manuel Goepfert
Assistance : Marc-Olivier Méhu




SOURCES & CREDITS :

   NOAA